createdAt,value
2023-03-30T00:01:12.653Z,99529.72
2023-03-30T00:03:40.144Z,99528.75
2023-03-30T00:06:09.249Z,99536.66
2023-03-30T00:08:38.161Z,99535.19
2023-03-30T00:11:09.463Z,99538.69
2023-03-30T00:13:38.633Z,99538.66
2023-03-30T00:16:08.551Z,99538.00
2023-03-30T00:18:39.793Z,99536.31
2023-03-30T00:21:12.918Z,99526.00
2023-03-30T00:23:42.495Z,99525.94
2023-03-30T00:26:10.077Z,99524.88
2023-03-30T00:28:37.629Z,99523.19
2023-03-30T00:31:05.237Z,99516.38
2023-03-30T00:33:44.832Z,99515.50
2023-03-30T00:36:15.053Z,99510.16
2023-03-30T00:38:42.727Z,99505.88
2023-03-30T00:41:10.258Z,99502.25
2023-03-30T00:43:59.089Z,99498.97
2023-03-30T00:46:27.179Z,99497.34
2023-03-30T00:49:05.580Z,99500.78
2023-03-30T00:51:40.827Z,99502.81
2023-03-30T00:54:13.789Z,99490.66
2023-03-30T00:56:41.406Z,99497.50
2023-03-30T00:59:10.662Z,99492.38
2023-03-30T01:01:40.965Z,99494.34
2023-03-30T01:04:10.289Z,99488.22
2023-03-30T01:06:41.058Z,99489.13
2023-03-30T01:09:08.984Z,99474.25
2023-03-30T01:11:36.890Z,99487.44
2023-03-30T01:14:08.557Z,99480.53
2023-03-30T01:17:01.933Z,99481.19
2023-03-30T01:20:26.809Z,99476.63
2023-03-30T01:23:27.525Z,99463.63
2023-03-30T01:26:21.058Z,99469.78
2023-03-30T01:29:25.318Z,99472.41
2023-03-30T01:32:26.685Z,99467.28
2023-03-30T01:35:17.038Z,99462.72
2023-03-30T01:38:02.632Z,99445.41
2023-03-30T01:40:33.767Z,99443.38
2023-03-30T01:43:21.082Z,99449.59
2023-03-30T01:46:03.559Z,99446.06
2023-03-30T01:48:59.507Z,99446.97
2023-03-30T01:52:16.675Z,99437.28
2023-03-30T01:55:03.158Z,99447.03
2023-03-30T01:57:48.340Z,99442.63
2023-03-30T02:00:20.728Z,99448.63
2023-03-30T02:03:20.190Z,99433.88
2023-03-30T02:05:51.846Z,99426.91
2023-03-30T02:08:25.355Z,99431.22
2023-03-30T02:10:55.360Z,99427.75
2023-03-30T02:13:23.983Z,99416.38
2023-03-30T02:15:58.149Z,99422.63
2023-03-30T02:18:27.854Z,99424.16
2023-03-30T02:20:59.148Z,99419.88
2023-03-30T02:23:34.061Z,99426.16
2023-03-30T02:26:02.295Z,99425.97
2023-03-30T02:28:31.026Z,99419.88
2023-03-30T02:30:58.674Z,99416.47
2023-03-30T02:33:42.896Z,99407.56
2023-03-30T02:36:37.780Z,99412.78
2023-03-30T02:39:07.963Z,99405.91
2023-03-30T02:42:16.996Z,99405.13
2023-03-30T02:45:32.381Z,99398.88
2023-03-30T02:48:42.791Z,99398.81
2023-03-30T02:51:39.560Z,99398.56
2023-03-30T02:54:23.398Z,99394.31
2023-03-30T02:57:16.641Z,99398.56
2023-03-30T03:00:00.206Z,99389.16
2023-03-30T03:02:35.841Z,99394.25
2023-03-30T03:05:04.445Z,99392.59
2023-03-30T03:07:34.178Z,99389.91
2023-03-30T03:10:01.680Z,99385.38
2023-03-30T03:12:30.026Z,99379.94
2023-03-30T03:14:58.126Z,99385.03
2023-03-30T03:17:29.834Z,99380.50
2023-03-30T03:19:58.027Z,99383.09
2023-03-30T03:22:26.506Z,99376.84
2023-03-30T03:24:56.209Z,99376.13
2023-03-30T03:27:24.067Z,99370.72
2023-03-30T03:29:51.431Z,99367.28
2023-03-30T03:32:18.858Z,99363.84
2023-03-30T03:34:46.350Z,99358.50
2023-03-30T03:37:21.101Z,99349.72
2023-03-30T03:39:48.421Z,99354.78
2023-03-30T03:42:15.982Z,99353.06
2023-03-30T03:44:43.309Z,99340.09
2023-03-30T03:47:16.015Z,99334.97
2023-03-30T03:49:49.979Z,99328.00
2023-03-30T03:52:17.679Z,99331.22
2023-03-30T03:54:44.912Z,99325.19
2023-03-30T03:57:12.368Z,99320.94
2023-03-30T03:59:39.945Z,99319.75
2023-03-30T04:02:07.076Z,99324.00
2023-03-30T04:04:34.411Z,99309.16
2023-03-30T04:07:03.712Z,99306.66
2023-03-30T04:09:31.334Z,99299.56
2023-03-30T04:11:58.829Z,99303.00
2023-03-30T04:14:26.290Z,99302.00
2023-03-30T04:16:53.581Z,99300.47
2023-03-30T04:19:25.521Z,99277.69
2023-03-30T04:21:53.270Z,99287.50
2023-03-30T04:24:20.664Z,99282.19
2023-03-30T04:26:49.166Z,99271.31
2023-03-30T04:29:18.167Z,99279.34
2023-03-30T04:31:51.146Z,99282.13
2023-03-30T04:34:22.092Z,99267.00
2023-03-30T04:36:49.472Z,99273.94
2023-03-30T04:39:18.464Z,99260.72
2023-03-30T04:41:46.317Z,99251.00
2023-03-30T04:44:14.560Z,99253.69
2023-03-30T04:46:42.375Z,99240.31
2023-03-30T04:49:09.445Z,99228.97
2023-03-30T04:51:37.721Z,99231.63
2023-03-30T04:54:05.212Z,99211.44
2023-03-30T04:56:32.437Z,99206.97
2023-03-30T04:59:00.765Z,99192.81
2023-03-30T05:01:28.704Z,99196.28
2023-03-30T05:03:56.409Z,99216.63
2023-03-30T05:06:24.687Z,99226.09
2023-03-30T05:08:54.179Z,99245.19
2023-03-30T05:11:21.616Z,99238.72
2023-03-30T05:13:52.310Z,99246.72
2023-03-30T05:16:19.831Z,99243.88
2023-03-30T05:18:49.348Z,99235.75
2023-03-30T05:21:26.686Z,99240.97
2023-03-30T05:23:55.877Z,99250.34
2023-03-30T05:26:24.203Z,99257.91
2023-03-30T05:28:51.786Z,99250.09
2023-03-30T05:31:20.072Z,99245.53
2023-03-30T05:33:48.064Z,99243.81
2023-03-30T05:36:15.323Z,99236.09
2023-03-30T05:38:42.679Z,99232.34
2023-03-30T05:41:10.184Z,99234.22
2023-03-30T05:43:37.721Z,99228.03
2023-03-30T05:46:07.069Z,99212.09
2023-03-30T05:48:34.466Z,99205.91
2023-03-30T05:51:02.544Z,99191.44
2023-03-30T05:53:29.915Z,99197.38
2023-03-30T05:55:57.513Z,99194.75
2023-03-30T05:58:24.912Z,99197.03
2023-03-30T06:00:52.949Z,99205.41
2023-03-30T06:03:20.333Z,99202.47
2023-03-30T06:05:48.307Z,99202.88
2023-03-30T06:08:15.866Z,99193.28
2023-03-30T06:10:53.234Z,99189.69
2023-03-30T06:13:20.468Z,99196.72
2023-03-30T06:15:48.046Z,99189.81
2023-03-30T06:18:15.800Z,99185.38
2023-03-30T06:20:48.068Z,99178.03
2023-03-30T06:23:15.945Z,99186.06
2023-03-30T06:25:46.762Z,99178.47
2023-03-30T06:28:14.372Z,99185.91
2023-03-30T06:30:42.732Z,99187.38
2023-03-30T06:33:10.112Z,99185.25
2023-03-30T06:35:38.043Z,99182.25
2023-03-30T06:38:05.188Z,99175.59
2023-03-30T06:40:32.563Z,99189.94
2023-03-30T06:43:00.126Z,99182.06
2023-03-30T06:45:28.109Z,99182.47
2023-03-30T06:47:56.568Z,99180.88
2023-03-30T06:50:24.214Z,99183.22
2023-03-30T06:52:51.550Z,99166.41
2023-03-30T06:55:18.850Z,99162.53
2023-03-30T06:57:46.360Z,99154.97
2023-03-30T07:00:16.295Z,99150.81
2023-03-30T07:02:43.626Z,99162.41
2023-03-30T07:05:15.971Z,99158.38
2023-03-30T07:07:48.933Z,99167.59
2023-03-30T07:10:16.554Z,99165.19
2023-03-30T07:12:43.811Z,99172.88
2023-03-30T07:15:11.689Z,99154.72
2023-03-30T07:17:41.580Z,99151.56
2023-03-30T07:20:11.127Z,99162.34
2023-03-30T07:22:39.347Z,99171.97
2023-03-30T07:25:07.356Z,99174.63
2023-03-30T07:27:36.425Z,99178.69
2023-03-30T07:30:17.856Z,99182.06
2023-03-30T07:32:50.810Z,99177.88
2023-03-30T07:35:19.648Z,99186.88
2023-03-30T07:37:50.756Z,99188.31
2023-03-30T07:40:19.936Z,99173.88
2023-03-30T07:42:48.092Z,99167.00
2023-03-30T07:45:16.640Z,99167.88
2023-03-30T07:47:44.245Z,99152.31
2023-03-30T07:50:11.743Z,99163.16
2023-03-30T07:52:45.549Z,99150.19
2023-03-30T07:55:13.501Z,99147.16
2023-03-30T07:57:40.958Z,99137.28
2023-03-30T08:00:10.785Z,99142.59
2023-03-30T08:02:38.289Z,99136.22
2023-03-30T08:05:06.943Z,99139.06
2023-03-30T08:07:35.788Z,99142.13
2023-03-30T08:10:04.543Z,99133.09
2023-03-30T08:12:32.078Z,99131.31
2023-03-30T08:14:59.485Z,99142.97
2023-03-30T08:17:27.141Z,99139.38
2023-03-30T08:19:56.470Z,99127.72
2023-03-30T08:22:29.994Z,99110.16
2023-03-30T08:25:04.195Z,99124.78
2023-03-30T08:27:31.834Z,99126.72
2023-03-30T08:30:01.297Z,99110.06
2023-03-30T08:32:28.589Z,99109.69
2023-03-30T08:34:55.952Z,99095.84
2023-03-30T08:37:23.556Z,99094.41
2023-03-30T08:39:54.017Z,99099.56
2023-03-30T08:42:58.613Z,99096.28
2023-03-30T08:45:26.844Z,99085.38
2023-03-30T08:47:55.009Z,99085.38
2023-03-30T08:50:38.111Z,99074.28
2023-03-30T08:53:07.602Z,99072.94
2023-03-30T08:55:54.287Z,99069.66
2023-03-30T08:58:55.244Z,99045.13
2023-03-30T09:01:59.649Z,99057.16
2023-03-30T09:04:39.837Z,99070.16
2023-03-30T09:07:29.188Z,99061.53
2023-03-30T09:09:57.808Z,99075.91
2023-03-30T09:12:48.476Z,99063.22
2023-03-30T09:15:17.664Z,99053.94
2023-03-30T09:18:08.079Z,99055.84
2023-03-30T09:20:39.135Z,99050.38
2023-03-30T09:23:13.885Z,99050.44
2023-03-30T09:26:07.004Z,99038.69
2023-03-30T09:28:48.586Z,99051.28
2023-03-30T09:31:36.370Z,99061.63
2023-03-30T09:34:29.698Z,99032.00
2023-03-30T09:37:10.352Z,99041.91
2023-03-30T09:39:39.172Z,99043.72
2023-03-30T09:42:19.028Z,99023.78
2023-03-30T09:44:55.951Z,99039.38
2023-03-30T09:47:29.158Z,99035.97
2023-03-30T09:50:06.192Z,99018.94
2023-03-30T09:52:39.174Z,99007.97
2023-03-30T09:55:21.941Z,99017.22
2023-03-30T09:57:53.849Z,99009.56
2023-03-30T10:00:34.533Z,99012.03
2023-03-30T10:03:07.180Z,99022.69
2023-03-30T10:05:36.936Z,98982.25
2023-03-30T10:08:18.014Z,98970.16
2023-03-30T10:10:45.648Z,98970.34
2023-03-30T10:13:16.798Z,98967.53
2023-03-30T10:15:50.211Z,98956.47
2023-03-30T10:18:38.454Z,98934.25
2023-03-30T10:21:23.128Z,98932.78
2023-03-30T10:24:04.833Z,98920.28
2023-03-30T10:26:34.908Z,98938.63
2023-03-30T10:29:08.230Z,98947.63
2023-03-30T10:31:38.060Z,98960.13
2023-03-30T10:34:14.962Z,98940.59
2023-03-30T10:36:42.234Z,98947.22
2023-03-30T10:39:18.197Z,98956.41
2023-03-30T10:41:49.052Z,98956.41
2023-03-30T10:44:36.157Z,98957.91
2023-03-30T10:47:18.019Z,98949.34
2023-03-30T10:49:53.433Z,98940.22
2023-03-30T10:52:52.000Z,98933.78
2023-03-30T10:55:31.855Z,98937.81
2023-03-30T10:58:37.355Z,98920.84
2023-03-30T11:01:18.776Z,98919.91
2023-03-30T11:03:52.356Z,98919.59
2023-03-30T11:06:28.802Z,98924.19
2023-03-30T11:09:06.334Z,98922.34
2023-03-30T11:11:51.640Z,98921.56
2023-03-30T11:14:55.674Z,98930.91
2023-03-30T11:17:54.554Z,98933.09
2023-03-30T11:20:47.773Z,98933.38
2023-03-30T11:23:55.705Z,98933.03
2023-03-30T11:26:43.389Z,98940.09
2023-03-30T11:29:27.344Z,98924.19
2023-03-30T11:32:17.606Z,98930.00
2023-03-30T11:35:05.908Z,98937.47
2023-03-30T11:37:48.694Z,98940.09
2023-03-30T11:40:47.237Z,98940.03
2023-03-30T11:43:18.067Z,98953.63
2023-03-30T11:46:05.454Z,98937.50
2023-03-30T11:49:05.907Z,98934.75
2023-03-30T11:51:54.347Z,98933.06
2023-03-30T11:55:01.788Z,98933.66
2023-03-30T11:57:51.681Z,98932.09
2023-03-30T12:00:41.364Z,98945.31
2023-03-30T12:03:40.408Z,98954.91
2023-03-30T12:06:28.619Z,98948.50
2023-03-30T12:09:05.355Z,98950.22
2023-03-30T12:11:51.081Z,98955.53
2023-03-30T12:14:47.511Z,98964.91
2023-03-30T12:17:33.689Z,98954.34
2023-03-30T12:20:09.771Z,98963.22
2023-03-30T12:23:01.611Z,98954.91
2023-03-30T12:25:45.395Z,98954.91
2023-03-30T12:28:17.047Z,98968.53
2023-03-30T12:30:56.769Z,98955.53
2023-03-30T12:33:36.707Z,98967.03
2023-03-30T12:36:40.228Z,98960.00
2023-03-30T12:39:49.491Z,98964.47
2023-03-30T12:42:37.870Z,98964.91
2023-03-30T12:45:22.198Z,98970.41
2023-03-30T12:48:08.001Z,98987.94
2023-03-30T12:50:59.811Z,98973.78
2023-03-30T12:53:58.746Z,98976.34
2023-03-30T12:56:37.246Z,98965.38
2023-03-30T12:59:15.841Z,98973.47
2023-03-30T13:02:12.112Z,98972.69
2023-03-30T13:04:44.061Z,98970.13
2023-03-30T13:07:22.314Z,98977.53
2023-03-30T13:09:59.744Z,98990.72
2023-03-30T13:12:31.579Z,98987.09
2023-03-30T13:15:03.185Z,98986.13
2023-03-30T13:18:01.734Z,98984.81
2023-03-30T13:20:56.320Z,98978.25
2023-03-30T13:23:23.769Z,98982.34
2023-03-30T13:26:09.319Z,98989.63
2023-03-30T13:28:57.514Z,98972.00
2023-03-30T13:32:02.498Z,98976.69
2023-03-30T13:34:51.454Z,98971.63
2023-03-30T13:38:07.613Z,98970.13
2023-03-30T13:40:48.787Z,98965.09
2023-03-30T13:43:50.911Z,98951.88
2023-03-30T13:46:28.297Z,98949.72
2023-03-30T13:49:19.045Z,98946.34
2023-03-30T13:51:47.854Z,98943.47
2023-03-30T13:54:22.176Z,98926.28
2023-03-30T13:56:57.852Z,98927.75
2023-03-30T13:59:32.144Z,98923.72
2023-03-30T14:02:01.755Z,98927.09
2023-03-30T14:04:39.361Z,98923.84
2023-03-30T14:07:19.542Z,98927.09
2023-03-30T14:10:12.902Z,98915.75
2023-03-30T14:12:42.021Z,98908.66
2023-03-30T14:15:38.077Z,98911.19
2023-03-30T14:18:05.899Z,98910.19
2023-03-30T14:21:15.934Z,98909.81
2023-03-30T14:23:51.227Z,98895.81
2023-03-30T14:26:29.641Z,98900.44
2023-03-30T14:29:10.775Z,98896.72
2023-03-30T14:31:40.269Z,98893.25
2023-03-30T14:34:34.325Z,98889.34
2023-03-30T14:37:12.436Z,98888.66
2023-03-30T14:39:50.135Z,98889.69
2023-03-30T14:42:24.883Z,98889.03
2023-03-30T14:44:55.888Z,98883.22
2023-03-30T14:47:30.098Z,98877.25
2023-03-30T14:50:01.705Z,98883.31
2023-03-30T14:52:38.185Z,98875.72
2023-03-30T14:55:18.261Z,98875.97
2023-03-30T14:57:47.320Z,98863.97
2023-03-30T15:00:20.639Z,98865.91
2023-03-30T15:02:58.980Z,98854.56
2023-03-30T15:05:32.825Z,98854.66
2023-03-30T15:08:02.479Z,98846.09
2023-03-30T15:10:44.485Z,98838.69
2023-03-30T15:13:28.457Z,98847.56
2023-03-30T15:15:57.228Z,98830.00
2023-03-30T15:18:27.421Z,98830.91
2023-03-30T15:20:56.897Z,98820.75
2023-03-30T15:23:26.372Z,98824.19
2023-03-30T15:25:57.648Z,98812.91
2023-03-30T15:28:25.341Z,98808.72
2023-03-30T15:30:54.013Z,98796.53
2023-03-30T15:33:36.517Z,98788.41
2023-03-30T15:36:18.638Z,98779.63
2023-03-30T15:38:59.049Z,98785.94
2023-03-30T15:42:01.750Z,98775.34
2023-03-30T15:44:37.926Z,98766.66
2023-03-30T15:47:20.099Z,98762.13
2023-03-30T15:49:52.014Z,98755.22
2023-03-30T15:52:43.524Z,98755.50
2023-03-30T15:55:21.558Z,98744.72
2023-03-30T15:57:52.459Z,98751.13
2023-03-30T16:00:27.535Z,98739.69
2023-03-30T16:03:00.561Z,98737.22
2023-03-30T16:05:34.278Z,98743.72
2023-03-30T16:08:02.949Z,98750.88
2023-03-30T16:10:34.002Z,98748.59
2023-03-30T16:13:02.471Z,98744.69
2023-03-30T16:15:33.257Z,98747.75
2023-03-30T16:18:01.439Z,98747.94
2023-03-30T16:20:32.233Z,98745.44
2023-03-30T16:23:00.074Z,98748.88
2023-03-30T16:28:01.197Z,98735.28
2023-03-30T16:30:34.894Z,98748.63
2023-03-30T16:33:03.196Z,98743.66
2023-03-30T16:35:32.678Z,98753.69
2023-03-30T16:38:06.450Z,98751.13
2023-03-30T16:40:43.151Z,98751.63
2023-03-30T16:43:13.256Z,98742.84
2023-03-30T16:45:42.123Z,98749.94
2023-03-30T16:48:15.471Z,98742.59
2023-03-30T16:50:45.754Z,98752.38
2023-03-30T16:53:14.661Z,98741.22
2023-03-30T16:55:45.954Z,98750.25
2023-03-30T16:58:15.808Z,98758.97
2023-03-30T17:00:50.127Z,98755.28
2023-03-30T17:03:19.086Z,98753.47
2023-03-30T17:05:49.239Z,98753.69
2023-03-30T17:08:23.849Z,98760.66
2023-03-30T17:10:53.830Z,98759.88
2023-03-30T17:13:22.427Z,98771.38
2023-03-30T17:15:50.097Z,98772.41
2023-03-30T17:18:26.304Z,98769.53
2023-03-30T17:20:56.679Z,98774.63
2023-03-30T17:23:36.967Z,98774.47
2023-03-30T17:26:05.657Z,98774.47
2023-03-30T17:28:35.901Z,98783.44
2023-03-30T17:31:09.163Z,98782.47
2023-03-30T17:33:38.510Z,98786.97
2023-03-30T17:36:27.195Z,98794.00
2023-03-30T17:38:56.818Z,98800.03
2023-03-30T17:41:25.089Z,98797.50
2023-03-30T17:43:55.724Z,98806.34
2023-03-30T17:46:24.154Z,98808.81
2023-03-30T17:48:52.802Z,98805.31
2023-03-30T17:51:21.360Z,98801.75
2023-03-30T17:53:49.347Z,98799.94
2023-03-30T17:56:31.908Z,98808.56
2023-03-30T17:59:00.612Z,98799.88
2023-03-30T18:01:28.619Z,98807.72
2023-03-30T18:03:57.260Z,98803.28
2023-03-30T18:06:27.072Z,98801.50
2023-03-30T18:08:56.084Z,98803.97
2023-03-30T18:11:24.375Z,98803.97
2023-03-30T18:13:53.952Z,98803.97
2023-03-30T18:16:25.919Z,98797.78
2023-03-30T18:18:57.932Z,98800.41
2023-03-30T18:21:27.104Z,98792.56
2023-03-30T18:23:55.508Z,98791.78
2023-03-30T18:26:23.789Z,98785.66
2023-03-30T18:28:51.950Z,98777.53
2023-03-30T18:31:23.113Z,98777.13
2023-03-30T18:33:55.806Z,98779.53
2023-03-30T18:36:25.005Z,98777.78
2023-03-30T18:38:55.862Z,98765.84
2023-03-30T18:41:23.881Z,98766.84
2023-03-30T18:43:53.174Z,98766.59
2023-03-30T18:46:23.842Z,98770.34
2023-03-30T18:48:52.064Z,98771.28
2023-03-30T18:51:22.360Z,98771.47
2023-03-30T18:53:50.425Z,98767.88
2023-03-30T18:56:18.921Z,98775.38
2023-03-30T18:58:49.230Z,98776.16
2023-03-30T19:01:18.310Z,98758.13
2023-03-30T19:03:47.427Z,98758.28
2023-03-30T19:06:22.838Z,98740.75
2023-03-30T19:08:52.012Z,98743.97
2023-03-30T19:11:28.343Z,98751.34
2023-03-30T19:13:57.274Z,98745.88
2023-03-30T19:16:26.130Z,98751.69
2023-03-30T19:18:56.198Z,98749.78
2023-03-30T19:21:26.242Z,98757.66
2023-03-30T19:23:57.473Z,98756.97
2023-03-30T19:26:26.788Z,98748.63
2023-03-30T19:28:55.069Z,98752.84
2023-03-30T19:31:23.772Z,98742.91
2023-03-30T19:33:52.445Z,98738.56
2023-03-30T19:36:24.035Z,98733.72
2023-03-30T19:38:56.778Z,98729.66
2023-03-30T19:41:32.749Z,98729.94
2023-03-30T19:44:02.345Z,98723.53
2023-03-30T19:46:38.650Z,98723.44
2023-03-30T19:49:07.922Z,98715.78
2023-03-30T19:51:36.527Z,98710.75
2023-03-30T19:54:11.254Z,98718.38
2023-03-30T19:56:40.178Z,98721.78
2023-03-30T19:59:09.969Z,98721.97
2023-03-30T20:01:38.685Z,98726.56
2023-03-30T20:04:13.571Z,98729.97
2023-03-30T20:06:41.615Z,98721.13
2023-03-30T20:09:10.036Z,98724.44
2023-03-30T20:11:37.960Z,98711.31
2023-03-30T20:14:07.782Z,98717.72
2023-03-30T20:16:35.917Z,98717.88
2023-03-30T20:19:15.945Z,98720.66
2023-03-30T20:21:50.035Z,98723.50
2023-03-30T20:24:17.778Z,98725.53
2023-03-30T20:26:47.058Z,98726.91
2023-03-30T20:29:14.781Z,98730.81
2023-03-30T20:31:42.948Z,98736.03
2023-03-30T20:34:13.069Z,98740.94
2023-03-30T20:36:40.800Z,98748.66
2023-03-30T20:39:10.206Z,98741.59
2023-03-30T20:41:40.559Z,98750.47
2023-03-30T20:44:11.752Z,98776.88
2023-03-30T20:46:40.413Z,98823.34
2023-03-30T20:49:10.361Z,98834.22
2023-03-30T20:51:39.929Z,98839.03
2023-03-30T20:54:07.528Z,98826.50
2023-03-30T20:56:34.931Z,98837.63
2023-03-30T20:59:02.603Z,98834.94
2023-03-30T21:01:32.060Z,98816.31
2023-03-30T21:04:02.649Z,98818.19
2023-03-30T21:06:34.104Z,98813.34
2023-03-30T21:09:06.223Z,98798.09
2023-03-30T21:11:39.040Z,98790.81
2023-03-30T21:14:08.930Z,98781.78
2023-03-30T21:16:38.208Z,98785.94
2023-03-30T21:19:06.135Z,98787.75
2023-03-30T21:21:35.184Z,98779.47
2023-03-30T21:24:07.513Z,98770.25
2023-03-30T21:26:35.842Z,98761.94
2023-03-30T21:29:09.309Z,98772.44
2023-03-30T21:31:36.753Z,98776.31
2023-03-30T21:34:04.567Z,98774.75
2023-03-30T21:36:32.230Z,98775.16
2023-03-30T21:39:01.152Z,98778.09
2023-03-30T21:41:30.804Z,98781.88
2023-03-30T21:44:10.526Z,98776.31
2023-03-30T21:46:37.909Z,98790.59
2023-03-30T21:49:05.318Z,98782.59
2023-03-30T21:51:32.883Z,98792.38
2023-03-30T21:54:00.339Z,98788.97
2023-03-30T21:56:29.966Z,98784.69
2023-03-30T21:58:58.331Z,98791.28
2023-03-30T22:01:31.807Z,98792.28
2023-03-30T22:03:59.510Z,98793.34
2023-03-30T22:06:28.784Z,98781.72
2023-03-30T22:08:56.397Z,98783.13
2023-03-30T22:11:26.442Z,98789.63
2023-03-30T22:13:55.747Z,98788.06
2023-03-30T22:16:38.005Z,98778.03
2023-03-30T22:19:05.593Z,98775.03
2023-03-30T22:21:35.826Z,98781.19
2023-03-30T22:24:07.630Z,98778.84
2023-03-30T22:26:36.534Z,98778.84
2023-03-30T22:29:05.334Z,98773.69
2023-03-30T22:31:33.905Z,98783.34
2023-03-30T22:34:01.730Z,98789.59
2023-03-30T22:36:31.286Z,98784.25
2023-03-30T22:39:05.619Z,98787.53
2023-03-30T22:41:35.732Z,98794.03
2023-03-30T22:44:05.211Z,98795.47
2023-03-30T22:46:35.114Z,98797.06
2023-03-30T22:49:14.545Z,98793.66
2023-03-30T22:51:53.019Z,98800.03
2023-03-30T22:54:22.718Z,98794.44
2023-03-30T22:56:51.292Z,98795.22
2023-03-30T22:59:20.616Z,98795.41
2023-03-30T23:01:48.097Z,98799.03
2023-03-30T23:04:17.377Z,98799.19
2023-03-30T23:06:51.744Z,98797.59
2023-03-30T23:09:23.336Z,98797.47
2023-03-30T23:11:51.549Z,98791.88
2023-03-30T23:14:18.653Z,98795.00
2023-03-30T23:16:46.526Z,98792.78
2023-03-30T23:19:15.113Z,98800.63
2023-03-30T23:21:44.916Z,98786.84
2023-03-30T23:24:12.245Z,98785.53
2023-03-30T23:26:45.663Z,98793.09
2023-03-30T23:29:13.614Z,98786.41
2023-03-30T23:31:42.200Z,98791.03
2023-03-30T23:34:13.282Z,98786.34
2023-03-30T23:36:49.934Z,98788.31
2023-03-30T23:39:20.416Z,98785.81
2023-03-30T23:41:47.714Z,98793.78
2023-03-30T23:44:15.274Z,98786.09
2023-03-30T23:46:43.061Z,98781.31
2023-03-30T23:49:11.846Z,98785.25
2023-03-30T23:51:40.262Z,98780.19
2023-03-30T23:54:08.687Z,98783.31
2023-03-30T23:56:38.029Z,98782.25
2023-03-30T23:59:09.530Z,98775.28
